Time;durP1;ratioP1;P1;durP2;ratioP2;P2;SDS_P1;SDS_P2;PMS_P1;PMS_P2;Temp;Humidity;BMP_temperature;BMP_pressure;BME280_temperature;BME280_humidity;BME280_pressure;Samples;Min_cycle;Max_cycle;Signal;HPM_P1;HPM_P2
2022/08/18 00:00:31;;;;;;;20.33;12.57;;;;;;;;;;5030468;28;20050;-60
2022/08/18 00:03:04;;;;;;;18.27;10.90;;;;;;;;;;5032692;28;20045;-59
2022/08/18 00:05:30;;;;;;;17.13;11.10;;;;;;;;;;5050020;28;20055;-59
2022/08/18 00:07:56;;;;;;;16.10;10.38;;;;;;;;;;5037085;28;20112;-60
2022/08/18 00:10:22;;;;;;;24.70;10.43;;;;;;;;;;5047940;28;20052;-60
2022/08/18 00:12:48;;;;;;;16.83;10.95;;;;;;;;;;5030581;28;20069;-59
2022/08/18 00:15:16;;;;;;;20.42;11.05;;;;;;;;;;5040682;28;20077;-59
2022/08/18 00:17:43;;;;;;;18.27;11.80;;;;;;;;;;5033173;28;20457;-59
2022/08/18 00:20:11;;;;;;;17.95;10.40;;;;;;;;;;5029978;28;20059;-59
2022/08/18 00:22:38;;;;;;;18.48;10.02;;;;;;;;;;5033935;28;20041;-59
2022/08/18 00:25:05;;;;;;;13.82;9.57;;;;;;;;;;5038552;28;20042;-59
2022/08/18 00:27:31;;;;;;;22.58;11.15;;;;;;;;;;5041117;28;20045;-59
2022/08/18 00:30:02;;;;;;;21.65;11.48;;;;;;;;;;5050135;28;20483;-59
2022/08/18 00:32:32;;;;;;;15.20;11.20;;;;;;;;;;5043771;28;20069;-59
2022/08/18 00:35:04;;;;;;;21.30;10.82;;;;;;;;;;5030308;28;20034;-60
2022/08/18 00:37:30;;;;;;;17.30;10.27;;;;;;;;;;5030168;28;20261;-59
2022/08/18 00:39:56;;;;;;;19.55;9.57;;;;;;;;;;5029645;28;20064;-59
2022/08/18 00:42:24;;;;;;;19.58;10.77;;;;;;;;;;5030167;28;20038;-59
2022/08/18 00:44:50;;;;;;;15.93;10.40;;;;;;;;;;5030370;28;20052;-59
2022/08/18 00:47:16;;;;;;;16.60;10.18;;;;;;;;;;5029365;28;20044;-59
2022/08/18 00:49:45;;;;;;;17.42;9.52;;;;;;;;;;5030113;28;20115;-59
2022/08/18 00:52:12;;;;;;;18.10;9.15;;;;;;;;;;5030107;28;20399;-60
2022/08/18 00:54:40;;;;;;;14.13;8.57;;;;;;;;;;5029361;28;20046;-59
2022/08/18 00:57:07;;;;;;;16.90;7.82;;;;;;;;;;5042157;28;20049;-59
2022/08/18 00:59:42;;;;;;;17.10;8.00;;;;;;;;;;5053696;28;20037;-59
2022/08/18 01:02:11;;;;;;;15.95;8.20;;;;;;;;;;5039674;28;20041;-59
2022/08/18 01:04:46;;;;;;;15.27;7.72;;;;;;;;;;5015829;28;20045;-59
2022/08/18 01:07:21;;;;;;;15.55;7.65;;;;;;;;;;5015248;28;20062;-59
2022/08/18 01:09:47;;;;;;;12.90;7.28;;;;;;;;;;5033041;28;20431;-60
2022/08/18 01:12:13;;;;;;;21.13;8.43;;;;;;;;;;5036206;28;20574;-59
2022/08/18 01:14:39;;;;;;;14.15;7.78;;;;;;;;;;5050305;28;20071;-60
2022/08/18 01:22:38;;;;;;;14.93;6.80;;;;;;;;;;5051370;28;20052;-60
2022/08/18 01:27:50;;;;;;;16.60;7.63;;;;;;;;;;5037378;28;20451;-60
2022/08/18 01:30:17;;;;;;;14.43;7.10;;;;;;;;;;5052279;28;20044;-59
2022/08/18 01:32:44;;;;;;;15.90;6.72;;;;;;;;;;5046260;28;20037;-59
2022/08/18 01:35:12;;;;;;;16.65;6.80;;;;;;;;;;5032853;28;20037;-59
2022/08/18 01:37:40;;;;;;;26.00;7.30;;;;;;;;;;5032825;28;20639;-59
2022/08/18 01:40:07;;;;;;;12.43;6.78;;;;;;;;;;5032565;28;20041;-59
2022/08/18 01:42:34;;;;;;;13.95;6.28;;;;;;;;;;5049716;28;20037;-59
2022/08/18 01:45:03;;;;;;;17.95;7.53;;;;;;;;;;5044571;28;20099;-59
2022/08/18 01:47:30;;;;;;;18.52;8.45;;;;;;;;;;5052303;28;20048;-58
2022/08/18 01:49:57;;;;;;;17.88;7.93;;;;;;;;;;5052670;28;20040;-59
2022/08/18 01:52:23;;;;;;;16.95;8.38;;;;;;;;;;5040047;28;20484;-59
2022/08/18 01:54:50;;;;;;;14.10;8.25;;;;;;;;;;5049924;28;20044;-59
2022/08/18 01:57:16;;;;;;;19.83;9.32;;;;;;;;;;5042505;28;20085;-59
2022/08/18 01:59:43;;;;;;;22.60;11.60;;;;;;;;;;5042900;28;20096;-59
2022/08/18 02:02:13;;;;;;;26.85;13.57;;;;;;;;;;5032294;28;20361;-60
2022/08/18 02:04:39;;;;;;;24.70;14.88;;;;;;;;;;5032778;28;20037;-59
2022/08/18 02:07:06;;;;;;;30.85;14.88;;;;;;;;;;5051406;28;20051;-59
2022/08/18 02:09:33;;;;;;;27.17;14.65;;;;;;;;;;5051519;28;20126;-59
2022/08/18 02:11:59;;;;;;;29.52;14.68;;;;;;;;;;5045073;28;20696;-59
2022/08/18 02:14:25;;;;;;;31.77;16.13;;;;;;;;;;5040237;28;20332;-59
2022/08/18 02:16:51;;;;;;;30.13;16.02;;;;;;;;;;5051620;28;20047;-59
2022/08/18 02:19:17;;;;;;;26.20;15.07;;;;;;;;;;5051922;28;20080;-59
2022/08/18 02:21:43;;;;;;;23.17;13.75;;;;;;;;;;5039145;28;20368;-59
2022/08/18 02:24:09;;;;;;;25.08;14.32;;;;;;;;;;5031584;28;20045;-59
2022/08/18 02:26:35;;;;;;;27.80;13.88;;;;;;;;;;5032172;28;20431;-59
2022/08/18 02:29:01;;;;;;;26.25;12.73;;;;;;;;;;5038740;28;20056;-58
2022/08/18 02:31:27;;;;;;;24.00;12.65;;;;;;;;;;5051742;28;20037;-59
2022/08/18 02:33:54;;;;;;;26.73;11.70;;;;;;;;;;5051621;28;20047;-59
2022/08/18 02:36:20;;;;;;;16.98;9.60;;;;;;;;;;5050626;28;20099;-59
2022/08/18 02:38:46;;;;;;;17.33;10.93;;;;;;;;;;5031409;28;20383;-59
2022/08/18 02:41:13;;;;;;;22.60;11.80;;;;;;;;;;5031964;28;20128;-60
2022/08/18 02:43:40;;;;;;;26.85;11.13;;;;;;;;;;5031755;28;20046;-60
2022/08/18 02:46:07;;;;;;;23.95;11.43;;;;;;;;;;5031231;28;20087;-59
2022/08/18 02:48:33;;;;;;;20.75;9.75;;;;;;;;;;5031180;28;20051;-59
2022/08/18 02:51:05;;;;;;;19.88;9.85;;;;;;;;;;5031837;28;20376;-60
2022/08/18 02:53:31;;;;;;;;;;;;;;;;;;5031597;28;20037;-60
2022/08/18 02:56:14;;;;;;;14.90;8.90;;;;;;;;;;5031248;28;19917;-60
2022/08/18 02:58:40;;;;;;;;;;;;;;;;;;5051760;28;20106;-60
2022/08/18 03:01:06;;;;;;;17.35;9.60;;;;;;;;;;5038240;28;20359;-59
2022/08/18 03:03:32;;;;;;;20.52;9.77;;;;;;;;;;5051327;28;20087;-60
2022/08/18 03:05:58;;;;;;;18.27;9.77;;;;;;;;;;5037177;28;20460;-59
2022/08/18 03:08:24;;;;;;;19.50;9.27;;;;;;;;;;5034374;28;20072;-59
2022/08/18 03:10:53;;;;;;;18.50;10.80;;;;;;;;;;5051229;28;20041;-59
2022/08/18 03:13:19;;;;;;;19.92;9.52;;;;;;;;;;5046968;28;20128;-59
2022/08/18 03:15:46;;;;;;;15.15;9.70;;;;;;;;;;5044899;28;20048;-59
2022/08/18 03:18:12;;;;;;;25.45;10.13;;;;;;;;;;5035547;28;20613;-60
2022/08/18 03:20:38;;;;;;;22.67;11.32;;;;;;;;;;5030216;28;20037;-59
2022/08/18 03:23:05;;;;;;;17.90;9.27;;;;;;;;;;5048722;28;20048;-58
2022/08/18 03:25:31;;;;;;;22.88;9.60;;;;;;;;;;5033418;28;20115;-59
2022/08/18 03:27:57;;;;;;;17.50;10.18;;;;;;;;;;5040256;28;20387;-60
2022/08/18 03:30:23;;;;;;;21.77;9.43;;;;;;;;;;5032586;28;20057;-59
2022/08/18 03:32:49;;;;;;;22.38;10.60;;;;;;;;;;5037906;28;20041;-59
2022/08/18 03:35:16;;;;;;;23.38;10.73;;;;;;;;;;5050212;28;20657;-60
2022/08/18 03:37:43;;;;;;;22.17;9.90;;;;;;;;;;5031583;28;20049;-60
2022/08/18 03:40:12;;;;;;;21.17;10.10;;;;;;;;;;5030425;28;20049;-59
2022/08/18 03:42:38;;;;;;;26.75;10.48;;;;;;;;;;5030307;28;20041;-59
2022/08/18 03:45:05;;;;;;;22.25;10.25;;;;;;;;;;5029718;28;20515;-59
2022/08/18 03:47:31;;;;;;;23.35;11.07;;;;;;;;;;5030015;28;20051;-59
2022/08/18 03:49:58;;;;;;;19.13;9.98;;;;;;;;;;5030362;28;20140;-59
2022/08/18 03:52:24;;;;;;;17.85;9.95;;;;;;;;;;5030271;28;20127;-59
2022/08/18 03:54:50;;;;;;;23.13;10.60;;;;;;;;;;5035181;28;20388;-59
2022/08/18 03:57:16;;;;;;;24.65;11.00;;;;;;;;;;5044949;28;20038;-59
2022/08/18 03:59:42;;;;;;;22.35;10.80;;;;;;;;;;5044171;28;20037;-59
2022/08/18 04:02:09;;;;;;;21.88;10.93;;;;;;;;;;5044163;28;20033;-59
2022/08/18 04:04:35;;;;;;;30.25;12.40;;;;;;;;;;5049477;28;20067;-59
2022/08/18 04:07:05;;;;;;;19.02;11.65;;;;;;;;;;5029488;28;20065;-59
2022/08/18 04:09:32;;;;;;;22.75;12.98;;;;;;;;;;5030328;28;20462;-60
2022/08/18 04:12:02;;;;;;;22.92;12.23;;;;;;;;;;5038342;28;20467;-60
2022/08/18 04:14:31;;;;;;;24.58;12.98;;;;;;;;;;5045958;28;20041;-59
2022/08/18 04:16:58;;;;;;;18.98;11.05;;;;;;;;;;5033452;28;20048;-60
2022/08/18 04:19:24;;;;;;;28.33;12.30;;;;;;;;;;5050265;28;20048;-60
2022/08/18 04:21:52;;;;;;;29.95;12.38;;;;;;;;;;5049801;28;20115;-60
2022/08/18 04:24:18;;;;;;;22.75;11.70;;;;;;;;;;5040030;28;20437;-59
2022/08/18 04:26:45;;;;;;;25.05;13.43;;;;;;;;;;5030025;28;20037;-60
2022/08/18 04:29:12;;;;;;;29.13;13.43;;;;;;;;;;5042621;28;20063;-59
2022/08/18 04:31:39;;;;;;;25.02;12.57;;;;;;;;;;5053071;28;20091;-59
2022/08/18 04:34:05;;;;;;;21.73;10.77;;;;;;;;;;5053937;28;20191;-59
2022/08/18 04:36:35;;;;;;;18.55;11.35;;;;;;;;;;5053836;28;20094;-59
2022/08/18 04:39:03;;;;;;;20.77;11.20;;;;;;;;;;5054143;28;20041;-59
2022/08/18 04:41:29;;;;;;;19.13;10.88;;;;;;;;;;5046862;28;20160;-58
2022/08/18 04:43:59;;;;;;;24.38;10.98;;;;;;;;;;5040171;28;20044;-59
2022/08/18 04:46:29;;;;;;;20.42;11.45;;;;;;;;;;5039267;28;20044;-59
2022/08/18 04:48:57;;;;;;;18.88;11.55;;;;;;;;;;5046271;28;20037;-59
2022/08/18 04:51:24;;;;;;;19.85;11.00;;;;;;;;;;5033567;28;20049;-60
2022/08/18 04:53:50;;;;;;;23.60;11.25;;;;;;;;;;5051360;28;20049;-60
2022/08/18 04:56:25;;;;;;;21.27;11.45;;;;;;;;;;5053502;28;20041;-60
2022/08/18 04:58:55;;;;;;;19.83;10.50;;;;;;;;;;5035331;28;20053;-59
2022/08/18 05:01:23;;;;;;;20.98;10.73;;;;;;;;;;5040942;28;20041;-60
2022/08/18 05:03:50;;;;;;;20.48;12.35;;;;;;;;;;5053867;28;20072;-60
2022/08/18 05:06:17;;;;;;;23.95;11.82;;;;;;;;;;5052846;28;20383;-60
2022/08/18 05:08:43;;;;;;;25.67;12.38;;;;;;;;;;5053241;28;20056;-59
2022/08/18 05:11:09;;;;;;;19.75;11.65;;;;;;;;;;5033881;28;20655;-59
2022/08/18 05:13:35;;;;;;;20.80;12.05;;;;;;;;;;5039996;28;20355;-60
2022/08/18 05:16:02;;;;;;;22.92;12.10;;;;;;;;;;5036576;28;20368;-59
2022/08/18 05:18:32;;;;;;;24.08;12.07;;;;;;;;;;5029610;28;20053;-59
2022/08/18 05:21:00;;;;;;;17.13;11.35;;;;;;;;;;5051175;28;20083;-59
2022/08/18 05:23:28;;;;;;;22.50;12.82;;;;;;;;;;5037843;28;20052;-60
2022/08/18 05:25:58;;;;;;;22.88;12.52;;;;;;;;;;5033290;28;20566;-59
2022/08/18 05:28:24;;;;;;;19.85;13.23;;;;;;;;;;5033133;28;20127;-59
2022/08/18 05:30:50;;;;;;;27.40;14.10;;;;;;;;;;5033169;28;21006;-59
2022/08/18 05:33:16;;;;;;;25.30;13.35;;;;;;;;;;5036563;28;20120;-59
2022/08/18 05:35:44;;;;;;;26.40;13.07;;;;;;;;;;5036144;28;20045;-60
2022/08/18 05:38:10;;;;;;;19.52;12.77;;;;;;;;;;5053055;28;20292;-59
2022/08/18 05:40:37;;;;;;;25.38;13.68;;;;;;;;;;5053112;28;20159;-60
2022/08/18 05:43:04;;;;;;;26.23;12.98;;;;;;;;;;5051776;28;20037;-60
2022/08/18 05:45:33;;;;;;;21.55;13.35;;;;;;;;;;5052532;28;20149;-59
2022/08/18 05:48:00;;;;;;;22.88;14.25;;;;;;;;;;5052671;28;20052;-59
2022/08/18 05:50:27;;;;;;;21.77;13.63;;;;;;;;;;5052448;28;20628;-60
2022/08/18 05:56:45;;;;;;;26.20;12.95;;;;;;;;;;5052870;28;20085;-59
2022/08/18 05:58:54;;;;;;;25.23;12.98;;;;;;;;;;5048398;28;20103;-58
2022/08/18 06:01:23;;;;;;;18.95;13.05;;;;;;;;;;5043617;28;20456;-60
2022/08/18 06:03:53;;;;;;;16.77;12.18;;;;;;;;;;5052695;28;20041;-59
2022/08/18 06:06:21;;;;;;;18.63;12.05;;;;;;;;;;5040458;28;20524;-60
2022/08/18 06:08:52;;;;;;;23.65;13.45;;;;;;;;;;5032203;28;20062;-61
2022/08/18 06:11:18;;;;;;;15.48;11.23;;;;;;;;;;5031685;28;20041;-60
2022/08/18 06:13:44;;;;;;;18.13;12.23;;;;;;;;;;5031773;28;20471;-62
2022/08/18 06:16:28;;;;;;;17.25;11.68;;;;;;;;;;5049523;28;20407;-62
2022/08/18 06:18:54;;;;;;;18.77;11.52;;;;;;;;;;5017781;28;20049;-61
2022/08/18 06:21:31;;;;;;;21.67;10.73;;;;;;;;;;5031677;28;20431;-61
2022/08/18 06:24:12;;;;;;;18.50;11.32;;;;;;;;;;5031944;28;20037;-62
2022/08/18 06:26:41;;;;;;;17.70;9.90;;;;;;;;;;5038395;28;20499;-60
2022/08/18 06:29:15;;;;;;;17.63;10.23;;;;;;;;;;5051024;28;20043;-61
2022/08/18 06:31:50;;;;;;;14.02;8.90;;;;;;;;;;5032470;28;20124;-62
2022/08/18 06:34:19;;;;;;;12.43;9.50;;;;;;;;;;5031407;28;20080;-62
2022/08/18 06:36:59;;;;;;;19.42;8.98;;;;;;;;;;5048347;28;20488;-61
2022/08/18 06:39:46;;;;;;;16.65;8.60;;;;;;;;;;5050388;28;20047;-61
2022/08/18 06:42:12;;;;;;;12.57;8.98;;;;;;;;;;5031417;28;20548;-63
2022/08/18 06:44:44;;;;;;;18.05;10.25;;;;;;;;;;5039875;28;20073;-63
2022/08/18 06:47:10;;;;;;;;;;;;;;;;;;5051731;28;20079;-63
2022/08/18 06:49:45;;;;;;;11.25;9.73;;;;;;;;;;5032798;28;20012;-63
2022/08/18 06:52:37;;;;;;;16.90;10.18;;;;;;;;;;5038719;28;20045;-61
2022/08/18 06:55:10;;;;;;;13.65;10.35;;;;;;;;;;5028930;28;20049;-62
2022/08/18 06:57:51;;;;;;;15.05;10.15;;;;;;;;;;5035617;28;20107;-61
2022/08/18 07:00:17;;;;;;;14.05;9.45;;;;;;;;;;5046744;28;20033;-61
2022/08/18 07:02:46;;;;;;;12.35;9.07;;;;;;;;;;5049889;28;20095;-62
2022/08/18 07:05:18;;;;;;;16.30;10.07;;;;;;;;;;5030911;28;20514;-61
2022/08/18 07:07:44;;;;;;;12.95;8.70;;;;;;;;;;5017056;28;20056;-63
2022/08/18 07:10:13;;;;;;;16.48;9.15;;;;;;;;;;5031293;28;20045;-61
2022/08/18 07:12:39;;;;;;;12.30;7.85;;;;;;;;;;5038807;28;20047;-62
2022/08/18 07:15:06;;;;;;;10.48;7.75;;;;;;;;;;5047693;28;20459;-61
2022/08/18 07:17:39;;;;;;;10.90;7.82;;;;;;;;;;5043623;28;20045;-61
2022/08/18 07:20:18;;;;;;;11.00;7.30;;;;;;;;;;5032208;28;20364;-62
2022/08/18 07:22:56;;;;;;;10.07;7.25;;;;;;;;;;5045136;28;20108;-62
2022/08/18 07:25:24;;;;;;;10.25;6.68;;;;;;;;;;5038173;28;20045;-63
2022/08/18 07:27:54;;;;;;;8.38;6.32;;;;;;;;;;5041970;28;20037;-63
2022/08/18 07:30:20;;;;;;;10.98;7.30;;;;;;;;;;5051564;28;20033;-63
2022/08/18 07:32:59;;;;;;;10.57;7.07;;;;;;;;;;5042473;28;20452;-63
2022/08/18 07:35:32;;;;;;;10.20;7.20;;;;;;;;;;5043333;28;20037;-63
2022/08/18 07:38:00;;;;;;;11.88;6.70;;;;;;;;;;5049075;28;20053;-62
2022/08/18 07:40:53;;;;;;;10.02;6.68;;;;;;;;;;5044707;28;20040;-62
2022/08/18 07:43:33;;;;;;;10.38;6.85;;;;;;;;;;5027039;28;20463;-62
2022/08/18 07:46:06;;;;;;;11.68;5.50;;;;;;;;;;5041100;28;20088;-61
2022/08/18 07:48:33;;;;;;;12.23;6.22;;;;;;;;;;5036338;28;20149;-62
2022/08/18 07:51:22;;;;;;;9.70;5.68;;;;;;;;;;5043515;28;20041;-62
2022/08/18 07:53:51;;;;;;;11.07;5.88;;;;;;;;;;5030682;28;20648;-62
2022/08/18 07:56:33;;;;;;;9.30;4.80;;;;;;;;;;5030073;28;20037;-62
2022/08/18 07:59:25;;;;;;;7.47;4.47;;;;;;;;;;5030218;28;20037;-61
2022/08/18 08:01:51;;;;;;;;;;;;;;;;;;5008341;28;20045;-62
2022/08/18 08:04:24;;;;;;;8.05;5.35;;;;;;;;;;5046736;28;20004;-62
2022/08/18 08:06:59;;;;;;;6.80;5.10;;;;;;;;;;5029566;28;20054;-62
2022/08/18 08:09:38;;;;;;;8.93;5.07;;;;;;;;;;5036884;28;20049;-61
2022/08/18 08:12:16;;;;;;;9.13;5.18;;;;;;;;;;5038268;28;20055;-61
2022/08/18 08:14:44;;;;;;;5.93;4.22;;;;;;;;;;5036712;28;20114;-61
2022/08/18 08:17:31;;;;;;;4.50;2.53;;;;;;;;;;5050759;28;20436;-62
2022/08/18 08:19:57;;;;;;;2.15;1.60;;;;;;;;;;5050017;28;20045;-62
2022/08/18 08:22:41;;;;;;;1.52;1.30;;;;;;;;;;5030837;28;20056;-62
2022/08/18 08:25:18;;;;;;;3.60;1.15;;;;;;;;;;5030678;28;20033;-61
2022/08/18 08:27:50;;;;;;;4.20;1.30;;;;;;;;;;5047685;28;20041;-62
2022/08/18 08:30:20;;;;;;;3.50;1.88;;;;;;;;;;5030873;28;20124;-61
2022/08/18 08:33:04;;;;;;;4.85;2.50;;;;;;;;;;5037624;28;20493;-60
2022/08/18 08:35:48;;;;;;;13.43;3.67;;;;;;;;;;5033705;28;20087;-62
2022/08/18 08:38:43;;;;;;;11.73;3.60;;;;;;;;;;5035200;28;20041;-60
2022/08/18 08:41:13;;;;;;;7.32;3.20;;;;;;;;;;4953424;28;20132;-61
2022/08/18 08:43:41;;;;;;;9.13;3.80;;;;;;;;;;5038448;28;20194;-61
2022/08/18 08:46:10;;;;;;;9.32;4.22;;;;;;;;;;5036505;28;20037;-61
2022/08/18 08:48:39;;;;;;;8.13;4.07;;;;;;;;;;5036604;28;20087;-61
2022/08/18 08:51:13;;;;;;;10.25;4.80;;;;;;;;;;5032723;28;20491;-63
2022/08/18 08:53:43;;;;;;;9.07;3.75;;;;;;;;;;5030724;28;20079;-63
2022/08/18 08:56:13;;;;;;;11.98;4.40;;;;;;;;;;5029423;28;20120;-63
2022/08/18 08:58:48;;;;;;;10.43;4.00;;;;;;;;;;5038895;28;20063;-62
2022/08/18 09:01:31;;;;;;;8.82;4.15;;;;;;;;;;5045966;28;20410;-63
2022/08/18 09:04:01;;;;;;;11.75;4.10;;;;;;;;;;5036293;28;20662;-63
2022/08/18 09:06:47;;;;;;;9.70;4.72;;;;;;;;;;5048850;28;20049;-62
2022/08/18 09:09:19;;;;;;;9.85;4.13;;;;;;;;;;5040825;28;20460;-61
2022/08/18 09:11:45;;;;;;;;;;;;;;;;;;5040342;28;20129;-62
2022/08/18 09:14:38;;;;;;;10.07;4.03;;;;;;;;;;5023517;28;20367;-62
2022/08/18 09:17:04;;;;;;;;;;;;;;;;;;5036744;28;20071;-62
2022/08/18 09:19:44;;;;;;;8.38;3.83;;;;;;;;;;5042716;28;19928;-63
2022/08/18 09:22:10;;;;;;;10.63;3.97;;;;;;;;;;5043997;28;20049;-63
2022/08/18 09:24:48;;;;;;;5.53;3.20;;;;;;;;;;5041712;28;20030;-63
2022/08/18 09:27:34;;;;;;;7.47;3.40;;;;;;;;;;5041458;28;20041;-63
2022/08/18 09:30:02;;;;;;;6.93;3.72;;;;;;;;;;5045399;28;20065;-61
2022/08/18 09:32:28;;;;;;;8.60;3.25;;;;;;;;;;5042173;28;20491;-63
2022/08/18 09:35:13;;;;;;;7.13;3.15;;;;;;;;;;5045246;28;20043;-63
2022/08/18 09:41:30;;;;;;;6.45;3.00;;;;;;;;;;5052948;28;20068;-63
2022/08/18 09:43:28;;;;;;;6.88;3.03;;;;;;;;;;5041828;28;20068;-61
2022/08/18 09:45:59;;;;;;;4.95;2.30;;;;;;;;;;5047843;28;20029;-61
2022/08/18 09:48:32;;;;;;;6.53;2.50;;;;;;;;;;5041072;28;20128;-60
2022/08/18 09:51:34;;;;;;;4.28;2.20;;;;;;;;;;5048759;28;20033;-62
2022/08/18 09:54:08;;;;;;;3.63;2.00;;;;;;;;;;4950453;29;20069;-62
2022/08/18 09:56:49;;;;;;;4.10;1.90;;;;;;;;;;5035225;28;20052;-61
2022/08/18 09:59:35;;;;;;;4.70;2.08;;;;;;;;;;5041236;28;20037;-61
2022/08/18 10:02:05;;;;;;;4.05;2.25;;;;;;;;;;5043788;28;20151;-62
2022/08/18 10:04:32;;;;;;;3.40;1.70;;;;;;;;;;5047927;28;20187;-62
2022/08/18 10:07:17;;;;;;;3.85;2.00;;;;;;;;;;5040714;28;20048;-61
2022/08/18 10:09:43;;;;;;;4.53;2.05;;;;;;;;;;5039457;28;20041;-61
2022/08/18 10:12:32;;;;;;;6.28;2.70;;;;;;;;;;5028211;28;20474;-61
2022/08/18 10:15:02;;;;;;;3.15;2.10;;;;;;;;;;5041244;28;20037;-62
2022/08/18 10:17:44;;;;;;;4.47;2.15;;;;;;;;;;5042555;28;20068;-61
2022/08/18 10:20:22;;;;;;;4.10;1.80;;;;;;;;;;5044690;28;20095;-61
2022/08/18 10:22:49;;;;;;;3.67;1.50;;;;;;;;;;5032283;28;20049;-62
2022/08/18 10:25:31;;;;;;;3.03;1.30;;;;;;;;;;5038874;28;20052;-61
2022/08/18 10:27:57;;;;;;;3.63;1.50;;;;;;;;;;5042058;28;20037;-61
2022/08/18 10:30:29;;;;;;;2.53;1.75;;;;;;;;;;5043696;28;20044;-62
2022/08/18 10:32:56;;;;;;;2.88;1.60;;;;;;;;;;5040559;28;20041;-62
2022/08/18 10:35:37;;;;;;;4.10;1.85;;;;;;;;;;5039319;28;20499;-62
2022/08/18 10:38:06;;;;;;;1.88;1.70;;;;;;;;;;5032292;28;20037;-62
2022/08/18 10:40:33;;;;;;;4.18;1.85;;;;;;;;;;5043389;28;20064;-62
2022/08/18 10:43:17;;;;;;;5.38;1.98;;;;;;;;;;5051596;28;20091;-62
2022/08/18 10:45:44;;;;;;;2.00;1.63;;;;;;;;;;5040405;28;20120;-62
2022/08/18 10:48:24;;;;;;;3.80;1.67;;;;;;;;;;5031607;28;20551;-62
2022/08/18 10:50:50;;;;;;;3.13;1.42;;;;;;;;;;5035882;28;20124;-62
2022/08/18 10:53:16;;;;;;;2.45;1.52;;;;;;;;;;5038841;28;20120;-62
2022/08/18 10:55:47;;;;;;;3.40;1.65;;;;;;;;;;5044025;28;20432;-62
2022/08/18 10:58:37;;;;;;;5.88;1.70;;;;;;;;;;5049174;28;20068;-62
2022/08/18 11:01:03;;;;;;;5.22;1.83;;;;;;;;;;5035331;28;20458;-62
2022/08/18 11:03:39;;;;;;;3.60;2.03;;;;;;;;;;5038856;28;20029;-62
2022/08/18 11:06:10;;;;;;;2.22;1.80;;;;;;;;;;5030540;28;20072;-62
2022/08/18 11:08:42;;;;;;;2.83;1.85;;;;;;;;;;5031620;28;20044;-63
2022/08/18 11:11:09;;;;;;;4.18;1.70;;;;;;;;;;5044405;28;20041;-62
2022/08/18 11:13:55;;;;;;;4.55;1.85;;;;;;;;;;5036965;28;20045;-61
2022/08/18 11:16:29;;;;;;;2.88;1.58;;;;;;;;;;5038743;28;20049;-61
2022/08/18 11:19:05;;;;;;;3.22;1.77;;;;;;;;;;5044312;28;20109;-62
2022/08/18 11:21:31;;;;;;;3.30;2.30;;;;;;;;;;5032106;28;20049;-61
2022/08/18 11:24:03;;;;;;;9.15;1.90;;;;;;;;;;5046905;28;20044;-61
2022/08/18 11:26:30;;;;;;;6.88;1.88;;;;;;;;;;5050928;28;20082;-62
2022/08/18 11:28:56;;;;;;;2.83;1.52;;;;;;;;;;5040354;28;20041;-63
2022/08/18 11:31:23;;;;;;;2.95;1.70;;;;;;;;;;5040951;28;20044;-63
2022/08/18 11:33:50;;;;;;;3.95;1.92;;;;;;;;;;5040100;28;20037;-62
2022/08/18 11:36:16;;;;;;;2.97;1.55;;;;;;;;;;5044691;28;20353;-62
2022/08/18 11:38:55;;;;;;;3.65;2.10;;;;;;;;;;5038368;28;20774;-62
2022/08/18 11:41:27;;;;;;;3.80;1.67;;;;;;;;;;5043517;28;20049;-62
2022/08/18 11:43:58;;;;;;;3.22;1.70;;;;;;;;;;5031217;28;20079;-61
2022/08/18 11:46:29;;;;;;;3.05;1.70;;;;;;;;;;5035162;28;20116;-63
2022/08/18 11:48:55;;;;;;;2.05;1.65;;;;;;;;;;5037638;28;20049;-63
2022/08/18 11:51:24;;;;;;;2.60;1.48;;;;;;;;;;5050423;28;20462;-62
2022/08/18 11:53:53;;;;;;;2.20;1.30;;;;;;;;;;5031754;28;20141;-62
2022/08/18 11:56:19;;;;;;;1.58;1.40;;;;;;;;;;5031123;28;20380;-63
2022/08/18 11:58:49;;;;;;;4.82;1.40;;;;;;;;;;5038098;28;20033;-62
2022/08/18 12:01:30;;;;;;;4.05;1.63;;;;;;;;;;5039039;28;20041;-60
2022/08/18 12:03:58;;;;;;;3.90;1.65;;;;;;;;;;5039516;28;20068;-61
2022/08/18 12:06:26;;;;;;;2.65;1.98;;;;;;;;;;5038856;28;20057;-61
2022/08/18 12:08:57;;;;;;;6.78;1.77;;;;;;;;;;5040142;28;20143;-61
2022/08/18 12:11:35;;;;;;;3.53;1.88;;;;;;;;;;5036946;28;20064;-62
2022/08/18 12:14:04;;;;;;;3.70;1.77;;;;;;;;;;5038839;28;20050;-61
2022/08/18 12:16:31;;;;;;;5.00;1.85;;;;;;;;;;5045203;28;20072;-60
2022/08/18 12:18:57;;;;;;;2.65;1.60;;;;;;;;;;5030561;28;20041;-60
2022/08/18 12:21:23;;;;;;;4.78;1.75;;;;;;;;;;5029796;28;20037;-62
2022/08/18 12:23:49;;;;;;;5.15;1.90;;;;;;;;;;5042825;28;20518;-61
2022/08/18 12:26:15;;;;;;;5.22;1.73;;;;;;;;;;5033906;28;20407;-62
2022/08/18 12:28:42;;;;;;;3.67;2.00;;;;;;;;;;5037404;28;20099;-61
2022/08/18 12:31:08;;;;;;;4.15;1.75;;;;;;;;;;5049594;28;20486;-61
2022/08/18 12:33:35;;;;;;;4.10;1.70;;;;;;;;;;5031078;28;20049;-61
2022/08/18 12:36:05;;;;;;;3.83;1.67;;;;;;;;;;5036885;28;20049;-61
2022/08/18 12:38:32;;;;;;;4.40;1.70;;;;;;;;;;5047667;28;20445;-61
2022/08/18 12:40:58;;;;;;;5.05;1.77;;;;;;;;;;5034054;28;20174;-62
2022/08/18 12:43:24;;;;;;;2.78;1.42;;;;;;;;;;5038827;28;20403;-62
2022/08/18 12:45:51;;;;;;;3.65;1.80;;;;;;;;;;5042723;28;20044;-62
2022/08/18 12:48:17;;;;;;;5.57;2.15;;;;;;;;;;5040449;28;20037;-61
2022/08/18 12:50:43;;;;;;;2.15;1.85;;;;;;;;;;5034747;28;20052;-61
2022/08/18 12:53:09;;;;;;;5.10;1.60;;;;;;;;;;5041348;28;20478;-62
2022/08/18 12:55:39;;;;;;;4.35;1.60;;;;;;;;;;5033655;28;20148;-62
2022/08/18 12:58:05;;;;;;;3.78;1.67;;;;;;;;;;5033514;28;20088;-62
2022/08/18 13:00:31;;;;;;;2.58;1.63;;;;;;;;;;5032781;28;20439;-61
2022/08/18 13:02:58;;;;;;;5.47;1.70;;;;;;;;;;5049255;28;20044;-61
2022/08/18 13:05:24;;;;;;;2.95;1.30;;;;;;;;;;5032847;28;20048;-61
2022/08/18 13:07:50;;;;;;;3.55;1.45;;;;;;;;;;5043523;28;20510;-61
2022/08/18 13:10:16;;;;;;;3.40;1.40;;;;;;;;;;5037800;28;20094;-61
2022/08/18 13:12:42;;;;;;;3.17;1.88;;;;;;;;;;5046989;28;20046;-61
2022/08/18 13:15:09;;;;;;;4.68;1.70;;;;;;;;;;5037450;28;20040;-61
2022/08/18 13:17:38;;;;;;;2.10;1.30;;;;;;;;;;5033515;28;20042;-61
2022/08/18 13:20:08;;;;;;;1.92;1.52;;;;;;;;;;5034154;28;20045;-61
2022/08/18 13:22:34;;;;;;;5.18;1.70;;;;;;;;;;5032768;28;20045;-61
2022/08/18 13:25:01;;;;;;;9.43;1.80;;;;;;;;;;5048792;28;20047;-61
2022/08/18 13:27:27;;;;;;;3.90;1.40;;;;;;;;;;5046407;28;20056;-62
2022/08/18 13:29:54;;;;;;;2.03;1.58;;;;;;;;;;5040333;28;20506;-62
2022/08/18 13:32:20;;;;;;;2.65;1.50;;;;;;;;;;5052106;28;20482;-62
2022/08/18 13:34:46;;;;;;;1.67;1.52;;;;;;;;;;5035252;28;20041;-62
2022/08/18 13:37:13;;;;;;;5.55;2.00;;;;;;;;;;5048397;28;20037;-61
2022/08/18 13:39:40;;;;;;;2.90;1.60;;;;;;;;;;5044970;28;20048;-61
2022/08/18 13:42:06;;;;;;;4.70;1.70;;;;;;;;;;5042751;28;20039;-61
2022/08/18 13:44:32;;;;;;;2.70;1.45;;;;;;;;;;5040323;28;20124;-62
2022/08/18 13:46:58;;;;;;;2.78;1.20;;;;;;;;;;5036208;28;20049;-62
2022/08/18 13:49:25;;;;;;;2.58;1.65;;;;;;;;;;5040690;28;20041;-61
2022/08/18 13:51:57;;;;;;;4.75;1.80;;;;;;;;;;5042855;28;20081;-62
2022/08/18 13:54:28;;;;;;;2.97;1.40;;;;;;;;;;5042234;28;20045;-62
2022/08/18 13:56:55;;;;;;;2.42;1.50;;;;;;;;;;5045182;28;20054;-62
2022/08/18 13:59:21;;;;;;;3.40;1.42;;;;;;;;;;5044967;28;20102;-60
2022/08/18 14:01:48;;;;;;;3.15;1.58;;;;;;;;;;5038738;28;20078;-60
2022/08/18 14:04:14;;;;;;;6.43;2.47;;;;;;;;;;5050497;28;20033;-61
2022/08/18 14:06:40;;;;;;;2.28;1.52;;;;;;;;;;5044182;28;20121;-61
2022/08/18 14:09:07;;;;;;;4.18;1.80;;;;;;;;;;5053505;28;20053;-61
2022/08/18 14:11:36;;;;;;;3.40;1.52;;;;;;;;;;5049214;28;20174;-60
2022/08/18 14:14:03;;;;;;;2.42;1.70;;;;;;;;;;5037468;28;20059;-62
2022/08/18 14:16:30;;;;;;;3.15;1.38;;;;;;;;;;5051977;28;20041;-61
2022/08/18 14:27:14;;;;;;;3.88;1.40;;;;;;;;;;5035973;28;20387;-60
2022/08/18 14:29:42;;;;;;;5.57;1.45;;;;;;;;;;5022747;28;20041;-62
2022/08/18 14:32:08;;;;;;;3.25;1.40;;;;;;;;;;5020928;28;20129;-63
2022/08/18 14:34:34;;;;;;;2.08;1.30;;;;;;;;;;5041418;28;20125;-62
2022/08/18 14:37:00;;;;;;;3.42;1.80;;;;;;;;;;5039228;28;20106;-62
2022/08/18 14:39:26;;;;;;;3.30;1.48;;;;;;;;;;5039636;28;20041;-61
2022/08/18 14:41:53;;;;;;;4.57;1.50;;;;;;;;;;5046875;28;20118;-61
2022/08/18 14:44:19;;;;;;;5.53;1.30;;;;;;;;;;5031092;28;20044;-62
2022/08/18 14:46:46;;;;;;;3.58;1.60;;;;;;;;;;5045367;28;20029;-62
2022/08/18 14:49:13;;;;;;;2.42;1.40;;;;;;;;;;5049399;28;20128;-62
2022/08/18 14:51:41;;;;;;;4.03;1.60;;;;;;;;;;5050549;28;20044;-60
2022/08/18 14:54:08;;;;;;;2.15;1.20;;;;;;;;;;5043930;28;20124;-61
2022/08/18 14:56:35;;;;;;;1.90;1.63;;;;;;;;;;5049324;28;20502;-63
2022/08/18 14:59:01;;;;;;;4.25;1.52;;;;;;;;;;5032268;28;20411;-62
2022/08/18 15:01:27;;;;;;;2.53;1.40;;;;;;;;;;5043250;28;20048;-62
2022/08/18 15:03:53;;;;;;;4.20;1.70;;;;;;;;;;5039784;28;20059;-62
2022/08/18 15:06:19;;;;;;;2.78;1.48;;;;;;;;;;5049723;28;20414;-62
2022/08/18 15:08:45;;;;;;;3.50;1.55;;;;;;;;;;5051192;28;20044;-62
2022/08/18 15:11:11;;;;;;;5.28;1.77;;;;;;;;;;5051434;28;20419;-62